sensor_id;sensor_type;location;lat;lon;timestamp;pressure;altitude;pressure_sealevel;temperature
15170;BMP280;7685;47.406;8.540;2024-01-27T00:02:16;97900.91;;;9.81
15170;BMP280;7685;47.406;8.540;2024-01-27T00:04:42;97900.91;;;9.81
15170;BMP280;7685;47.406;8.540;2024-01-27T00:07:09;97902.41;;;9.76
15170;BMP280;7685;47.406;8.540;2024-01-27T00:09:35;97907.94;;;9.78
15170;BMP280;7685;47.406;8.540;2024-01-27T00:12:02;97906.00;;;9.79
15170;BMP280;7685;47.406;8.540;2024-01-27T00:14:28;97915.19;;;9.78
15170;BMP280;7685;47.406;8.540;2024-01-27T00:16:55;97908.97;;;9.75
15170;BMP280;7685;47.406;8.540;2024-01-27T00:19:21;97905.78;;;9.77
15170;BMP280;7685;47.406;8.540;2024-01-27T00:21:49;97915.19;;;9.78
15170;BMP280;7685;47.406;8.540;2024-01-27T00:24:15;97912.03;;;9.79
15170;BMP280;7685;47.406;8.540;2024-01-27T00:26:42;97914.69;;;9.79
15170;BMP280;7685;47.406;8.540;2024-01-27T00:29:09;97913.44;;;9.80
15170;BMP280;7685;47.406;8.540;2024-01-27T00:31:36;97910.78;;;9.80
15170;BMP280;7685;47.406;8.540;2024-01-27T00:34:02;97910.59;;;9.78
15170;BMP280;7685;47.406;8.540;2024-01-27T00:36:28;97904.38;;;9.76
15170;BMP280;7685;47.406;8.540;2024-01-27T00:38:55;97909.25;;;9.72
15170;BMP280;7685;47.406;8.540;2024-01-27T00:41:21;97905.69;;;9.69
15170;BMP280;7685;47.406;8.540;2024-01-27T00:43:48;97909.56;;;9.68
15170;BMP280;7685;47.406;8.540;2024-01-27T00:46:14;97917.84;;;9.65
15170;BMP280;7685;47.406;8.540;2024-01-27T00:48:41;97914.75;;;9.60
15170;BMP280;7685;47.406;8.540;2024-01-27T00:51:07;97904.97;;;9.55
15170;BMP280;7685;47.406;8.540;2024-01-27T00:53:33;97917.31;;;9.53
15170;BMP280;7685;47.406;8.540;2024-01-27T00:56:00;97913.50;;;9.48
15170;BMP280;7685;47.406;8.540;2024-01-27T00:58:27;97917.72;;;9.44
15170;BMP280;7685;47.406;8.540;2024-01-27T01:00:54;97923.31;;;9.40
15170;BMP280;7685;47.406;8.540;2024-01-27T01:03:20;97920.75;;;9.34
15170;BMP280;7685;47.406;8.540;2024-01-27T01:05:47;97918.16;;;9.29
15170;BMP280;7685;47.406;8.540;2024-01-27T01:08:13;97917.25;;;9.26
15170;BMP280;7685;47.406;8.540;2024-01-27T01:10:40;97921.81;;;9.26
15170;BMP280;7685;47.406;8.540;2024-01-27T01:13:06;97921.66;;;9.24
15170;BMP280;7685;47.406;8.540;2024-01-27T01:15:33;97921.22;;;9.20
15170;BMP280;7685;47.406;8.540;2024-01-27T01:18:00;97921.50;;;9.16
15170;BMP280;7685;47.406;8.540;2024-01-27T01:20:26;97919.88;;;9.13
15170;BMP280;7685;47.406;8.540;2024-01-27T01:22:53;97930.25;;;9.11
15170;BMP280;7685;47.406;8.540;2024-01-27T01:25:19;97935.16;;;9.07
15170;BMP280;7685;47.406;8.540;2024-01-27T01:27:46;97939.31;;;9.02
15170;BMP280;7685;47.406;8.540;2024-01-27T01:30:12;97938.88;;;8.98
15170;BMP280;7685;47.406;8.540;2024-01-27T01:32:39;97942.75;;;8.97
15170;BMP280;7685;47.406;8.540;2024-01-27T01:35:05;97949.28;;;8.96
15170;BMP280;7685;47.406;8.540;2024-01-27T01:37:32;97953.44;;;8.92
15170;BMP280;7685;47.406;8.540;2024-01-27T01:39:58;97953.22;;;8.90
15170;BMP280;7685;47.406;8.540;2024-01-27T01:42:25;97963.09;;;8.89
15170;BMP280;7685;47.406;8.540;2024-01-27T01:44:51;97941.69;;;8.87
15170;BMP280;7685;47.406;8.540;2024-01-27T01:47:18;97950.66;;;8.84
15170;BMP280;7685;47.406;8.540;2024-01-27T01:49:44;97956.69;;;8.85
15170;BMP280;7685;47.406;8.540;2024-01-27T01:52:11;97958.63;;;8.84
15170;BMP280;7685;47.406;8.540;2024-01-27T01:54:37;97953.81;;;8.82
15170;BMP280;7685;47.406;8.540;2024-01-27T01:57:05;97952.56;;;8.83
15170;BMP280;7685;47.406;8.540;2024-01-27T01:59:31;97948.72;;;8.85
15170;BMP280;7685;47.406;8.540;2024-01-27T02:01:57;97943.19;;;8.82
15170;BMP280;7685;47.406;8.540;2024-01-27T02:04:24;97942.97;;;8.80
15170;BMP280;7685;47.406;8.540;2024-01-27T02:06:50;97953.09;;;8.82
15170;BMP280;7685;47.406;8.540;2024-01-27T02:09:17;97954.31;;;8.81
15170;BMP280;7685;47.406;8.540;2024-01-27T02:11:43;97950.91;;;8.80
15170;BMP280;7685;47.406;8.540;2024-01-27T02:14:10;97955.22;;;8.83
15170;BMP280;7685;47.406;8.540;2024-01-27T02:16:36;97960.75;;;8.86
15170;BMP280;7685;47.406;8.540;2024-01-27T02:19:02;97958.09;;;8.86
15170;BMP280;7685;47.406;8.540;2024-01-27T02:21:30;97955.66;;;8.88
15170;BMP280;7685;47.406;8.540;2024-01-27T02:23:57;97956.38;;;8.88
15170;BMP280;7685;47.406;8.540;2024-01-27T02:26:24;97958.50;;;8.90
15170;BMP280;7685;47.406;8.540;2024-01-27T02:28:50;97960.97;;;8.88
15170;BMP280;7685;47.406;8.540;2024-01-27T02:31:17;97969.34;;;8.92
15170;BMP280;7685;47.406;8.540;2024-01-27T02:33:43;97976.78;;;8.93
15170;BMP280;7685;47.406;8.540;2024-01-27T02:36:10;97982.31;;;8.95
15170;BMP280;7685;47.406;8.540;2024-01-27T02:38:37;97975.78;;;8.96
15170;BMP280;7685;47.406;8.540;2024-01-27T02:41:03;97976.69;;;8.99
15170;BMP280;7685;47.406;8.540;2024-01-27T02:43:29;97976.69;;;8.99
15170;BMP280;7685;47.406;8.540;2024-01-27T02:45:56;97983.44;;;9.00
15170;BMP280;7685;47.406;8.540;2024-01-27T02:48:22;97979.59;;;9.01
15170;BMP280;7685;47.406;8.540;2024-01-27T02:50:49;97977.13;;;9.03
15170;BMP280;7685;47.406;8.540;2024-01-27T02:53:16;97975.94;;;9.04
15170;BMP280;7685;47.406;8.540;2024-01-27T02:55:42;97974.00;;;9.04
15170;BMP280;7685;47.406;8.540;2024-01-27T02:58:08;97967.28;;;9.03
15170;BMP280;7685;47.406;8.540;2024-01-27T03:00:35;97961.03;;;9.01
15170;BMP280;7685;47.406;8.540;2024-01-27T03:03:01;97973.56;;;9.00
15170;BMP280;7685;47.406;8.540;2024-01-27T03:05:27;97963.97;;;8.97
15170;BMP280;7685;47.406;8.540;2024-01-27T03:07:54;97975.06;;;8.96
15170;BMP280;7685;47.406;8.540;2024-01-27T03:10:21;97969.34;;;8.92
15170;BMP280;7685;47.406;8.540;2024-01-27T03:12:47;97975.13;;;8.90
15170;BMP280;7685;47.406;8.540;2024-01-27T03:15:13;97979.31;;;8.86
15170;BMP280;7685;47.406;8.540;2024-01-27T03:17:40;97973.56;;;8.81
15170;BMP280;7685;47.406;8.540;2024-01-27T03:20:07;97977.41;;;8.80
15170;BMP280;7685;47.406;8.540;2024-01-27T03:22:34;97973.66;;;8.76
15170;BMP280;7685;47.406;8.540;2024-01-27T03:25:01;97971.50;;;8.74
15170;BMP280;7685;47.406;8.540;2024-01-27T03:27:27;97969.13;;;8.71
15170;BMP280;7685;47.406;8.540;2024-01-27T03:29:56;97979.50;;;8.69
15170;BMP280;7685;47.406;8.540;2024-01-27T03:32:22;97988.47;;;8.66
15170;BMP280;7685;47.406;8.540;2024-01-27T03:34:49;97984.66;;;8.61
15170;BMP280;7685;47.406;8.540;2024-01-27T03:37:15;97995.75;;;8.60
15170;BMP280;7685;47.406;8.540;2024-01-27T03:39:42;97999.13;;;8.60
15170;BMP280;7685;47.406;8.540;2024-01-27T03:42:08;98000.81;;;8.57
15170;BMP280;7685;47.406;8.540;2024-01-27T03:44:35;97997.47;;;8.57
15170;BMP280;7685;47.406;8.540;2024-01-27T03:47:04;98004.47;;;8.54
15170;BMP280;7685;47.406;8.540;2024-01-27T03:49:30;97995.81;;;8.54
15170;BMP280;7685;47.406;8.540;2024-01-27T03:51:57;98009.78;;;8.54
15170;BMP280;7685;47.406;8.540;2024-01-27T03:54:23;98006.66;;;8.56
15170;BMP280;7685;47.406;8.540;2024-01-27T03:56:50;98013.38;;;8.57
15170;BMP280;7685;47.406;8.540;2024-01-27T03:59:16;98013.16;;;8.55
15170;BMP280;7685;47.406;8.540;2024-01-27T04:01:43;98017.44;;;8.58
15170;BMP280;7685;47.406;8.540;2024-01-27T04:04:10;98022.00;;;8.57
15170;BMP280;7685;47.406;8.540;2024-01-27T04:06:37;98013.16;;;8.55
15170;BMP280;7685;47.406;8.540;2024-01-27T04:09:05;98010.50;;;8.55
15170;BMP280;7685;47.406;8.540;2024-01-27T04:11:36;98006.22;;;8.52
15170;BMP280;7685;47.406;8.540;2024-01-27T04:14:04;98008.84;;;8.52
15170;BMP280;7685;47.406;8.540;2024-01-27T04:16:31;98011.75;;;8.48
15170;BMP280;7685;47.406;8.540;2024-01-27T04:18:58;98017.34;;;8.45
15170;BMP280;7685;47.406;8.540;2024-01-27T04:21:24;98009.75;;;8.36
15170;BMP280;7685;47.406;8.540;2024-01-27T04:23:51;98007.16;;;8.30
15170;BMP280;7685;47.406;8.540;2024-01-27T04:26:17;98012.28;;;8.22
15170;BMP280;7685;47.406;8.540;2024-01-27T04:28:44;98011.19;;;8.12
15170;BMP280;7685;47.406;8.540;2024-01-27T04:31:11;98014.59;;;8.07
15170;BMP280;7685;47.406;8.540;2024-01-27T04:33:38;98016.78;;;8.03
15170;BMP280;7685;47.406;8.540;2024-01-27T04:36:04;98025.47;;;8.03
15170;BMP280;7685;47.406;8.540;2024-01-27T04:38:34;98021.88;;;8.01
15170;BMP280;7685;47.406;8.540;2024-01-27T04:41:00;98027.16;;;8.01
15170;BMP280;7685;47.406;8.540;2024-01-27T04:43:27;98029.56;;;7.99
15170;BMP280;7685;47.406;8.540;2024-01-27T04:45:54;98030.78;;;7.98
15170;BMP280;7685;47.406;8.540;2024-01-27T04:48:21;98032.28;;;7.93
15170;BMP280;7685;47.406;8.540;2024-01-27T04:50:47;98034.00;;;7.91
15170;BMP280;7685;47.406;8.540;2024-01-27T04:53:14;98034.22;;;7.87
15170;BMP280;7685;47.406;8.540;2024-01-27T04:55:40;98030.16;;;7.86
15170;BMP280;7685;47.406;8.540;2024-01-27T04:58:07;98034.75;;;7.86
15170;BMP280;7685;47.406;8.540;2024-01-27T05:00:34;98034.03;;;7.85
15170;BMP280;7685;47.406;8.540;2024-01-27T05:03:01;98027.81;;;7.83
15170;BMP280;7685;47.406;8.540;2024-01-27T05:05:30;98029.19;;;7.84
15170;BMP280;7685;47.406;8.540;2024-01-27T05:08:01;98032.84;;;7.80
15170;BMP280;7685;47.406;8.540;2024-01-27T05:10:28;98036.97;;;7.82
15170;BMP280;7685;47.406;8.540;2024-01-27T05:12:55;98036.72;;;7.79
15170;BMP280;7685;47.406;8.540;2024-01-27T05:15:22;98039.38;;;7.79
15170;BMP280;7685;47.406;8.540;2024-01-27T05:17:48;98037.69;;;7.76
15170;BMP280;7685;47.406;8.540;2024-01-27T05:20:15;98039.63;;;7.76
15170;BMP280;7685;47.406;8.540;2024-01-27T05:22:41;98043.97;;;7.73
15170;BMP280;7685;47.406;8.540;2024-01-27T05:25:08;98030.53;;;7.71
15170;BMP280;7685;47.406;8.540;2024-01-27T05:27:34;98030.31;;;7.69
15170;BMP280;7685;47.406;8.540;2024-01-27T05:30:02;98036.81;;;7.68
15170;BMP280;7685;47.406;8.540;2024-01-27T05:32:29;98036.56;;;7.66
15170;BMP280;7685;47.406;8.540;2024-01-27T05:34:56;98036.84;;;7.63
15170;BMP280;7685;47.406;8.540;2024-01-27T05:37:23;98030.38;;;7.58
15170;BMP280;7685;47.406;8.540;2024-01-27T05:39:49;98035.44;;;7.56
15170;BMP280;7685;47.406;8.540;2024-01-27T05:42:16;98035.00;;;7.52
15170;BMP280;7685;47.406;8.540;2024-01-27T05:44:42;98033.31;;;7.49
15170;BMP280;7685;47.406;8.540;2024-01-27T05:47:09;98023.25;;;7.47
15170;BMP280;7685;47.406;8.540;2024-01-27T05:49:37;98031.44;;;7.44
15170;BMP280;7685;47.406;8.540;2024-01-27T05:52:04;98024.50;;;7.35
15170;BMP280;7685;47.406;8.540;2024-01-27T05:54:31;98038.69;;;7.32
15170;BMP280;7685;47.406;8.540;2024-01-27T05:56:58;98042.81;;;7.27
15170;BMP280;7685;47.406;8.540;2024-01-27T05:59:25;98044.75;;;7.27
15170;BMP280;7685;47.406;8.540;2024-01-27T06:01:51;98042.09;;;7.27
15170;BMP280;7685;47.406;8.540;2024-01-27T06:04:18;98040.91;;;7.22
15170;BMP280;7685;47.406;8.540;2024-01-27T06:06:44;98052.41;;;7.25
15170;BMP280;7685;47.406;8.540;2024-01-27T06:09:11;98044.78;;;7.21
15170;BMP280;7685;47.406;8.540;2024-01-27T06:11:40;98038.06;;;7.20
15170;BMP280;7685;47.406;8.540;2024-01-27T06:14:06;98039.50;;;7.16
15170;BMP280;7685;47.406;8.540;2024-01-27T06:16:32;98037.88;;;7.07
15170;BMP280;7685;47.406;8.540;2024-01-27T06:18:59;98034.28;;;7.04
15170;BMP280;7685;47.406;8.540;2024-01-27T06:21:26;98040.78;;;7.03
15170;BMP280;7685;47.406;8.540;2024-01-27T06:23:53;98029.72;;;6.99
15170;BMP280;7685;47.406;8.540;2024-01-27T06:26:20;98037.66;;;6.94
15170;BMP280;7685;47.406;8.540;2024-01-27T06:28:47;98042.94;;;6.94
15170;BMP280;7685;47.406;8.540;2024-01-27T06:31:15;98042.94;;;6.94
15170;BMP280;7685;47.406;8.540;2024-01-27T06:33:42;98041.53;;;6.93
15170;BMP280;7685;47.406;8.540;2024-01-27T06:36:09;98036.94;;;6.93
15170;BMP280;7685;47.406;8.540;2024-01-27T06:38:37;98035.50;;;6.92
15170;BMP280;7685;47.406;8.540;2024-01-27T06:41:03;98040.81;;;6.92
15170;BMP280;7685;47.406;8.540;2024-01-27T06:43:30;98042.03;;;6.86
15170;BMP280;7685;47.406;8.540;2024-01-27T06:45:56;98046.13;;;6.87
15170;BMP280;7685;47.406;8.540;2024-01-27T06:48:23;98047.31;;;6.86
15170;BMP280;7685;47.406;8.540;2024-01-27T06:50:53;98043.47;;;6.87
15170;BMP280;7685;47.406;8.540;2024-01-27T06:53:20;98060.53;;;6.86
15170;BMP280;7685;47.406;8.540;2024-01-27T06:55:46;98059.81;;;6.85
15170;BMP280;7685;47.406;8.540;2024-01-27T06:58:13;98050.69;;;6.80
15170;BMP280;7685;47.406;8.540;2024-01-27T07:00:39;98052.84;;;6.76
15170;BMP280;7685;47.406;8.540;2024-01-27T07:03:07;98060.53;;;6.74
15170;BMP280;7685;47.406;8.540;2024-01-27T07:05:38;98051.44;;;6.70
15170;BMP280;7685;47.406;8.540;2024-01-27T07:08:07;98055.06;;;6.72
15170;BMP280;7685;47.406;8.540;2024-01-27T07:10:36;98054.34;;;6.72
15170;BMP280;7685;47.406;8.540;2024-01-27T07:13:03;98053.84;;;6.68
15170;BMP280;7685;47.406;8.540;2024-01-27T07:15:29;98055.53;;;6.65
15170;BMP280;7685;47.406;8.540;2024-01-27T07:17:56;98051.00;;;6.60
15170;BMP280;7685;47.406;8.540;2024-01-27T07:20:23;98052.44;;;6.61
15170;BMP280;7685;47.406;8.540;2024-01-27T07:22:51;98053.38;;;6.64
15170;BMP280;7685;47.406;8.540;2024-01-27T07:25:17;98040.66;;;6.62
15170;BMP280;7685;47.406;8.540;2024-01-27T07:27:44;98053.84;;;6.62
15170;BMP280;7685;47.406;8.540;2024-01-27T07:30:11;98045.94;;;6.62
15170;BMP280;7685;47.406;8.540;2024-01-27T07:32:37;98052.44;;;6.61
15170;BMP280;7685;47.406;8.540;2024-01-27T07:35:04;98058.19;;;6.60
15170;BMP280;7685;47.406;8.540;2024-01-27T07:37:32;98059.63;;;6.61
15170;BMP280;7685;47.406;8.540;2024-01-27T07:39:58;98062.06;;;6.59
15170;BMP280;7685;47.406;8.540;2024-01-27T07:42:25;98055.56;;;6.60
15170;BMP280;7685;47.406;8.540;2024-01-27T07:44:51;98067.53;;;6.66
15170;BMP280;7685;47.406;8.540;2024-01-27T07:47:18;98066.81;;;6.66
15170;BMP280;7685;47.406;8.540;2024-01-27T07:49:45;98059.88;;;6.68
15170;BMP280;7685;47.406;8.540;2024-01-27T07:52:11;98056.72;;;6.70
15170;BMP280;7685;47.406;8.540;2024-01-27T07:54:38;98062.97;;;6.72
15170;BMP280;7685;47.406;8.540;2024-01-27T07:57:06;98055.06;;;6.72
15170;BMP280;7685;47.406;8.540;2024-01-27T07:59:33;98072.81;;;6.72
15170;BMP280;7685;47.406;8.540;2024-01-27T08:02:00;98073.28;;;6.70
15170;BMP280;7685;47.406;8.540;2024-01-27T08:04:27;98077.38;;;6.71
15170;BMP280;7685;47.406;8.540;2024-01-27T08:06:53;98073.53;;;6.72
15170;BMP280;7685;47.406;8.540;2024-01-27T08:09:20;98070.41;;;6.74
15170;BMP280;7685;47.406;8.540;2024-01-27T08:11:47;98064.63;;;6.75
15170;BMP280;7685;47.406;8.540;2024-01-27T08:14:18;98078.31;;;6.79
15170;BMP280;7685;47.406;8.540;2024-01-27T08:16:46;98068.00;;;6.82
15170;BMP280;7685;47.406;8.540;2024-01-27T08:19:12;98064.63;;;6.81
15170;BMP280;7685;47.406;8.540;2024-01-27T08:21:38;98067.03;;;6.85
15170;BMP280;7685;47.406;8.540;2024-01-27T08:24:05;98068.19;;;6.89
15170;BMP280;7685;47.406;8.540;2024-01-27T08:26:32;98059.53;;;6.94
15170;BMP280;7685;47.406;8.540;2024-01-27T08:28:58;98049.91;;;6.97
15170;BMP280;7685;47.406;8.540;2024-01-27T08:31:25;98058.53;;;7.03
15170;BMP280;7685;47.406;8.540;2024-01-27T08:33:51;98054.91;;;7.06
15170;BMP280;7685;47.406;8.540;2024-01-27T08:36:18;98051.09;;;7.07
15170;BMP280;7685;47.406;8.540;2024-01-27T08:38:45;98063.56;;;7.12
15170;BMP280;7685;47.406;8.540;2024-01-27T08:41:12;98061.84;;;7.15
15170;BMP280;7685;47.406;8.540;2024-01-27T08:43:38;98060.63;;;7.16
15170;BMP280;7685;47.406;8.540;2024-01-27T08:46:04;98064.50;;;7.20
15170;BMP280;7685;47.406;8.540;2024-01-27T08:48:31;98060.34;;;7.25
15170;BMP280;7685;47.406;8.540;2024-01-27T08:50:57;98067.56;;;7.30
15170;BMP280;7685;47.406;8.540;2024-01-27T08:53:24;98074.03;;;7.35
15170;BMP280;7685;47.406;8.540;2024-01-27T08:55:51;98073.03;;;7.38
15170;BMP280;7685;47.406;8.540;2024-01-27T08:58:17;98072.53;;;7.45
15170;BMP280;7685;47.406;8.540;2024-01-27T09:00:44;98066.25;;;7.48
15170;BMP280;7685;47.406;8.540;2024-01-27T09:03:10;98061.66;;;7.54
15170;BMP280;7685;47.406;8.540;2024-01-27T09:05:38;98066.69;;;7.58
15170;BMP280;7685;47.406;8.540;2024-01-27T09:08:06;98068.31;;;7.61
15170;BMP280;7685;47.406;8.540;2024-01-27T09:10:34;98066.88;;;7.65
15170;BMP280;7685;47.406;8.540;2024-01-27T09:13:02;98065.66;;;7.66
15170;BMP280;7685;47.406;8.540;2024-01-27T09:15:28;98069.28;;;7.69
15170;BMP280;7685;47.406;8.540;2024-01-27T09:17:55;98065.16;;;7.68
15170;BMP280;7685;47.406;8.540;2024-01-27T09:20:22;98074.56;;;7.69
15170;BMP280;7685;47.406;8.540;2024-01-27T09:22:49;98072.88;;;7.71
15170;BMP280;7685;47.406;8.540;2024-01-27T09:25:16;98077.13;;;7.74
15170;BMP280;7685;47.406;8.540;2024-01-27T09:27:43;98073.03;;;7.79
15170;BMP280;7685;47.406;8.540;2024-01-27T09:30:09;98069.13;;;7.86
15170;BMP280;7685;47.406;8.540;2024-01-27T09:32:36;98060.22;;;7.89
15170;BMP280;7685;47.406;8.540;2024-01-27T09:35:02;98061.59;;;7.95
15170;BMP280;7685;47.406;8.540;2024-01-27T09:37:29;98073.84;;;8.04
15170;BMP280;7685;47.406;8.540;2024-01-27T09:39:56;98068.47;;;8.10
15170;BMP280;7685;47.406;8.540;2024-01-27T09:42:23;98064.78;;;8.18
15170;BMP280;7685;47.406;8.540;2024-01-27T09:44:50;98070.22;;;8.26
15170;BMP280;7685;47.406;8.540;2024-01-27T09:47:20;98065.16;;;8.34
15170;BMP280;7685;47.406;8.540;2024-01-27T09:49:47;98067.00;;;8.39
15170;BMP280;7685;47.406;8.540;2024-01-27T09:52:15;98066.47;;;8.46
15170;BMP280;7685;47.406;8.540;2024-01-27T09:54:41;98060.16;;;8.49
15170;BMP280;7685;47.406;8.540;2024-01-27T09:57:08;98056.03;;;8.53
15170;BMP280;7685;47.406;8.540;2024-01-27T09:59:36;98051.16;;;8.57
15170;BMP280;7685;47.406;8.540;2024-01-27T10:02:03;98051.44;;;8.54
15170;BMP280;7685;47.406;8.540;2024-01-27T10:04:32;98055.97;;;8.59
15170;BMP280;7685;47.406;8.540;2024-01-27T10:06:58;98050.88;;;8.61
15170;BMP280;7685;47.406;8.540;2024-01-27T10:09:25;98049.19;;;8.64
15170;BMP280;7685;47.406;8.540;2024-01-27T10:11:53;98058.06;;;8.66
15170;BMP280;7685;47.406;8.540;2024-01-27T10:14:20;98044.03;;;8.71
15170;BMP280;7685;47.406;8.540;2024-01-27T10:16:47;98042.47;;;8.81
15170;BMP280;7685;47.406;8.540;2024-01-27T10:19:16;98042.13;;;8.91
15170;BMP280;7685;47.406;8.540;2024-01-27T10:21:44;98053.81;;;9.01
15170;BMP280;7685;47.406;8.540;2024-01-27T10:24:11;98052.50;;;9.07
15170;BMP280;7685;47.406;8.540;2024-01-27T10:26:38;98045.69;;;9.12
15170;BMP280;7685;47.406;8.540;2024-01-27T10:29:05;98033.59;;;9.17
15170;BMP280;7685;47.406;8.540;2024-01-27T10:31:35;98038.63;;;9.20
15170;BMP280;7685;47.406;8.540;2024-01-27T10:34:02;98040.47;;;9.25
15170;BMP280;7685;47.406;8.540;2024-01-27T10:36:39;98047.13;;;9.32
15170;BMP280;7685;47.406;8.540;2024-01-27T10:39:20;98041.34;;;9.33
15170;BMP280;7685;47.406;8.540;2024-01-27T10:41:47;98034.28;;;9.36
15170;BMP280;7685;47.406;8.540;2024-01-27T10:44:16;98029.69;;;9.37
15170;BMP280;7685;47.406;8.540;2024-01-27T10:46:44;98028.19;;;9.41
15170;BMP280;7685;47.406;8.540;2024-01-27T10:49:13;98019.50;;;9.41
15170;BMP280;7685;47.406;8.540;2024-01-27T10:51:45;98021.38;;;9.46
15170;BMP280;7685;47.406;8.540;2024-01-27T10:54:14;98024.44;;;9.50
15170;BMP280;7685;47.406;8.540;2024-01-27T10:56:43;98021.50;;;9.53
15170;BMP280;7685;47.406;8.540;2024-01-27T10:59:13;98014.16;;;9.59
15170;BMP280;7685;47.406;8.540;2024-01-27T11:01:41;98016.72;;;9.65
15170;BMP280;7685;47.406;8.540;2024-01-27T11:04:10;98014.72;;;9.71
15170;BMP280;7685;47.406;8.540;2024-01-27T11:06:38;98008.59;;;9.76
15170;BMP280;7685;47.406;8.540;2024-01-27T11:09:05;98002.47;;;9.81
15170;BMP280;7685;47.406;8.540;2024-01-27T11:11:32;98001.88;;;9.89
15170;BMP280;7685;47.406;8.540;2024-01-27T11:13:58;97995.97;;;9.96
15170;BMP280;7685;47.406;8.540;2024-01-27T11:16:25;97988.38;;;10.00
15170;BMP280;7685;47.406;8.540;2024-01-27T11:18:51;97990.47;;;10.07
15170;BMP280;7685;47.406;8.540;2024-01-27T11:21:19;97990.34;;;10.12
15170;BMP280;7685;47.406;8.540;2024-01-27T11:23:47;97979.59;;;10.18
15170;BMP280;7685;47.406;8.540;2024-01-27T11:26:21;97974.72;;;10.22
15170;BMP280;7685;47.406;8.540;2024-01-27T11:28:49;97968.34;;;10.25
15170;BMP280;7685;47.406;8.540;2024-01-27T11:31:17;97963.97;;;10.28
15170;BMP280;7685;47.406;8.540;2024-01-27T11:33:47;97968.78;;;10.29
15170;BMP280;7685;47.406;8.540;2024-01-27T11:36:19;97972.03;;;10.35
15170;BMP280;7685;47.406;8.540;2024-01-27T11:38:47;97970.28;;;10.38
15170;BMP280;7685;47.406;8.540;2024-01-27T11:41:23;97976.00;;;10.42
15170;BMP280;7685;47.406;8.540;2024-01-27T11:43:59;97979.56;;;10.45
15170;BMP280;7685;47.406;8.540;2024-01-27T11:46:28;97977.53;;;10.51
15170;BMP280;7685;47.406;8.540;2024-01-27T11:48:55;97971.78;;;10.60
15170;BMP280;7685;47.406;8.540;2024-01-27T11:51:22;97981.28;;;10.69
15170;BMP280;7685;47.406;8.540;2024-01-27T11:53:50;97973.38;;;10.76
15170;BMP280;7685;47.406;8.540;2024-01-27T11:56:16;97963.03;;;10.86
15170;BMP280;7685;47.406;8.540;2024-01-27T11:58:48;97950.00;;;10.96
15170;BMP280;7685;47.406;8.540;2024-01-27T12:01:15;97956.81;;;11.04
15170;BMP280;7685;47.406;8.540;2024-01-27T12:03:42;97949.94;;;11.09
15170;BMP280;7685;47.406;8.540;2024-01-27T12:06:11;97950.00;;;11.16
15170;BMP280;7685;47.406;8.540;2024-01-27T12:08:43;97948.31;;;11.27
15170;BMP280;7685;47.406;8.540;2024-01-27T12:11:16;97948.38;;;11.34
15170;BMP280;7685;47.406;8.540;2024-01-27T12:13:49;97953.94;;;11.44
15170;BMP280;7685;47.406;8.540;2024-01-27T12:16:16;97950.13;;;11.53
15170;BMP280;7685;47.406;8.540;2024-01-27T12:18:44;97943.59;;;11.61
15170;BMP280;7685;47.406;8.540;2024-01-27T12:21:10;97936.75;;;11.74
15170;BMP280;7685;47.406;8.540;2024-01-27T12:23:51;97937.53;;;11.89
15170;BMP280;7685;47.406;8.540;2024-01-27T12:26:19;97938.50;;;12.07
15170;BMP280;7685;47.406;8.540;2024-01-27T12:28:46;97940.50;;;12.22
15170;BMP280;7685;47.406;8.540;2024-01-27T12:31:17;97941.81;;;12.36
15170;BMP280;7685;47.406;8.540;2024-01-27T12:33:51;97937.03;;;12.50
15170;BMP280;7685;47.406;8.540;2024-01-27T12:36:19;97935.47;;;12.62
15170;BMP280;7685;47.406;8.540;2024-01-27T12:41:22;97927.31;;;12.83
15170;BMP280;7685;47.406;8.540;2024-01-27T12:43:48;97918.28;;;12.94
15170;BMP280;7685;47.406;8.540;2024-01-27T12:46:15;97924.69;;;13.06
15170;BMP280;7685;47.406;8.540;2024-01-27T12:48:44;97907.25;;;13.13
15170;BMP280;7685;47.406;8.540;2024-01-27T12:51:11;97905.59;;;13.25
15170;BMP280;7685;47.406;8.540;2024-01-27T12:53:42;97907.72;;;13.34
15170;BMP280;7685;47.406;8.540;2024-01-27T12:56:11;97901.66;;;13.41
15170;BMP280;7685;47.406;8.540;2024-01-27T12:58:38;97898.97;;;13.49
15170;BMP280;7685;47.406;8.540;2024-01-27T13:01:05;97896.47;;;13.58
15170;BMP280;7685;47.406;8.540;2024-01-27T13:03:32;97895.72;;;13.66
15170;BMP280;7685;47.406;8.540;2024-01-27T13:05:58;97895.00;;;13.73
15170;BMP280;7685;47.406;8.540;2024-01-27T13:08:25;97896.06;;;13.77
15170;BMP280;7685;47.406;8.540;2024-01-27T13:10:51;97895.13;;;13.82
15170;BMP280;7685;47.406;8.540;2024-01-27T13:13:18;97882.66;;;13.85
15170;BMP280;7685;47.406;8.540;2024-01-27T13:15:44;97882.81;;;13.87
15170;BMP280;7685;47.406;8.540;2024-01-27T13:18:11;97877.47;;;13.87
15170;BMP280;7685;47.406;8.540;2024-01-27T13:20:38;97872.47;;;13.91
15170;BMP280;7685;47.406;8.540;2024-01-27T13:23:06;97869.25;;;13.93
15170;BMP280;7685;47.406;8.540;2024-01-27T13:25:33;97872.28;;;13.97
15170;BMP280;7685;47.406;8.540;2024-01-27T13:28:00;97867.25;;;14.01
15170;BMP280;7685;47.406;8.540;2024-01-27T13:30:26;97867.41;;;14.10
15170;BMP280;7685;47.406;8.540;2024-01-27T13:32:54;97868.75;;;14.19
15170;BMP280;7685;47.406;8.540;2024-01-27T13:35:21;97871.38;;;14.27
15170;BMP280;7685;47.406;8.540;2024-01-27T13:37:47;97865.28;;;14.34
15170;BMP280;7685;47.406;8.540;2024-01-27T13:40:14;97866.63;;;14.42
15170;BMP280;7685;47.406;8.540;2024-01-27T13:42:41;97874.78;;;14.52
15170;BMP280;7685;47.406;8.540;2024-01-27T13:45:07;97875.41;;;14.60
15170;BMP280;7685;47.406;8.540;2024-01-27T13:47:35;97874.66;;;14.67
15170;BMP280;7685;47.406;8.540;2024-01-27T13:50:01;97872.31;;;14.72
15170;BMP280;7685;47.406;8.540;2024-01-27T13:52:28;97874.19;;;14.79
15170;BMP280;7685;47.406;8.540;2024-01-27T13:54:55;97873.97;;;14.84
15170;BMP280;7685;47.406;8.540;2024-01-27T13:57:22;97872.34;;;14.89
15170;BMP280;7685;47.406;8.540;2024-01-27T13:59:49;97867.31;;;14.93
15170;BMP280;7685;47.406;8.540;2024-01-27T14:02:15;97866.22;;;14.96
15170;BMP280;7685;47.406;8.540;2024-01-27T14:04:42;97867.63;;;14.97
15170;BMP280;7685;47.406;8.540;2024-01-27T14:07:08;97862.81;;;14.95
15170;BMP280;7685;47.406;8.540;2024-01-27T14:09:36;97865.34;;;14.93
15170;BMP280;7685;47.406;8.540;2024-01-27T14:12:04;97856.63;;;14.93
15170;BMP280;7685;47.406;8.540;2024-01-27T14:14:30;97846.44;;;14.91
15170;BMP280;7685;47.406;8.540;2024-01-27T14:16:57;97849.13;;;14.91
15170;BMP280;7685;47.406;8.540;2024-01-27T14:19:24;97855.34;;;14.94
15170;BMP280;7685;47.406;8.540;2024-01-27T14:21:50;97850.16;;;14.96
15170;BMP280;7685;47.406;8.540;2024-01-27T14:24:17;97848.34;;;14.98
15170;BMP280;7685;47.406;8.540;2024-01-27T14:26:43;97841.75;;;15.00
15170;BMP280;7685;47.406;8.540;2024-01-27T14:29:09;97842.94;;;15.06
15170;BMP280;7685;47.406;8.540;2024-01-27T14:31:36;97842.34;;;15.08
15170;BMP280;7685;47.406;8.540;2024-01-27T14:34:03;97845.50;;;15.14